Time;durP1;ratioP1;P1;durP2;ratioP2;P2;SDS_P1;SDS_P2;PMS_P1;PMS_P2;Temp;Humidity;BMP_temperature;BMP_pressure;BME280_temperature;BME280_humidity;BME280_pressure;Samples;Min_cycle;Max_cycle;Signal;HPM_P1;HPM_P2
2023/04/14 00:02:22;;;;;;;1.88;0.20;;;7.90;96.60;;;;;;5024096;28;20030;-72
2023/04/14 00:04:53;;;;;;;0.32;0.17;;;7.90;95.60;;;;;;5029410;28;20033;-72
2023/04/14 00:07:19;;;;;;;0.50;0.10;;;7.90;96.30;;;;;;5026628;28;20373;-72
2023/04/14 00:09:45;;;;;;;2.17;0.50;;;8.00;95.70;;;;;;5022669;28;20153;-72
2023/04/14 00:12:10;;;;;;;0.63;0.13;;;8.00;95.60;;;;;;5017555;28;20539;-72
2023/04/14 00:14:36;;;;;;;0.00;0.00;;;8.00;95.80;;;;;;5025920;28;20025;-73
2023/04/14 00:17:02;;;;;;;1.83;0.10;;;7.90;96.10;;;;;;5023239;28;20022;-73
2023/04/14 00:19:27;;;;;;;0.77;0.17;;;8.00;95.60;;;;;;5010778;28;20025;-73
2023/04/14 00:21:53;;;;;;;0.95;0.30;;;8.00;95.40;;;;;;5010181;28;20041;-72
2023/04/14 00:24:19;;;;;;;0.13;0.05;;;8.10;95.20;;;;;;5017020;28;20038;-72
2023/04/14 00:26:44;;;;;;;1.08;0.20;;;8.00;95.40;;;;;;5025368;28;20026;-72
2023/04/14 00:29:10;;;;;;;0.88;0.28;;;8.00;95.40;;;;;;5027048;28;20050;-72
2023/04/14 00:31:36;;;;;;;1.15;0.10;;;8.00;96.10;;;;;;5027606;28;20029;-72
2023/04/14 00:34:02;;;;;;;0.73;0.20;;;8.00;95.30;;;;;;5022481;28;20091;-72
2023/04/14 00:36:27;;;;;;;0.30;0.17;;;8.10;95.10;;;;;;5026625;28;20493;-72
2023/04/14 00:38:53;;;;;;;1.42;0.65;;;8.00;95.40;;;;;;5026002;28;20029;-72
2023/04/14 00:41:18;;;;;;;0.10;0.10;;;8.10;95.00;;;;;;5022391;28;20113;-72
2023/04/14 00:43:44;;;;;;;0.63;0.25;;;8.10;95.10;;;;;;5009618;28;20028;-73
2023/04/14 00:46:10;;;;;;;2.30;0.22;;;8.10;94.90;;;;;;5022476;28;20037;-72
2023/04/14 00:48:36;;;;;;;1.60;0.40;;;8.00;95.40;;;;;;5022014;28;20033;-72
2023/04/14 00:51:03;;;;;;;2.15;0.20;;;8.00;95.30;;;;;;5024146;28;20108;-72
2023/04/14 00:53:28;;;;;;;0.77;0.30;;;8.00;95.30;;;;;;5017824;28;20037;-72
2023/04/14 00:55:54;;;;;;;0.65;0.20;;;8.10;95.40;;;;;;5025190;28;20034;-72
2023/04/14 00:58:20;;;;;;;0.68;0.10;;;8.10;95.10;;;;;;5020351;28;20014;-72
2023/04/14 01:00:52;;;;;;;0.45;0.05;;;8.10;95.20;;;;;;5021218;28;20456;-72
2023/04/14 01:03:18;;;;;;;0.20;0.05;;;8.10;95.00;;;;;;5024032;28;20025;-72
2023/04/14 01:05:44;;;;;;;1.02;0.20;;;8.30;94.20;;;;;;5025670;28;20028;-73
2023/04/14 01:08:10;;;;;;;0.25;0.10;;;8.20;94.60;;;;;;5021398;28;20556;-73
2023/04/14 01:10:44;;;;;;;0.95;0.50;;;8.20;95.20;;;;;;5018560;28;20028;-73
2023/04/14 01:13:33;;;;;;;1.33;0.40;;;8.30;94.20;;;;;;5012588;28;20036;-72
2023/04/14 01:16:08;;;;;;;0.20;0.00;;;8.30;94.60;;;;;;5009045;28;20191;-72
2023/04/14 01:18:46;;;;;;;0.77;0.30;;;8.20;94.70;;;;;;5017612;28;20037;-72
2023/04/14 01:21:21;;;;;;;0.98;0.30;;;8.20;94.60;;;;;;5023292;28;20044;-72
2023/04/14 01:24:11;;;;;;;0.65;0.15;;;8.20;94.80;;;;;;5025496;28;20396;-72
2023/04/14 01:26:37;;;;;;;1.00;0.35;;;8.40;94.00;;;;;;5017106;28;20055;-72
2023/04/14 01:29:26;;;;;;;0.65;0.20;;;8.50;94.00;;;;;;5014275;28;20029;-72
2023/04/14 01:32:05;;;;;;;0.40;0.10;;;8.40;94.60;;;;;;5006628;28;20073;-72
2023/04/14 01:34:45;;;;;;;1.65;0.20;;;8.30;94.40;;;;;;5020223;28;20430;-72
2023/04/14 01:37:15;;;;;;;0.20;0.10;;;8.40;94.10;;;;;;5024837;28;20391;-72
2023/04/14 01:39:47;;;;;;;1.55;0.28;;;8.30;94.70;;;;;;5021662;28;20040;-72
2023/04/14 01:42:17;;;;;;;4.25;0.22;;;8.40;94.20;;;;;;5023103;28;20091;-72
2023/04/14 01:44:45;;;;;;;0.43;0.17;;;8.40;94.40;;;;;;5026074;28;20399;-72
2023/04/14 01:47:14;;;;;;;0.75;0.30;;;8.40;94.20;;;;;;5023499;28;20033;-72
2023/04/14 01:49:41;;;;;;;1.55;0.25;;;8.40;94.40;;;;;;5022578;28;20120;-72
2023/04/14 01:52:12;;;;;;;1.50;0.40;;;8.30;94.20;;;;;;5025628;28;20475;-72
2023/04/14 01:54:40;;;;;;;0.65;0.00;;;8.50;93.60;;;;;;5018975;28;20025;-72
2023/04/14 01:57:07;;;;;;;0.55;0.10;;;8.50;93.60;;;;;;5028817;28;20388;-72
2023/04/14 01:59:35;;;;;;;0.20;0.10;;;8.50;93.80;;;;;;5028407;28;20029;-73
2023/04/14 02:02:02;;;;;;;0.80;0.20;;;8.50;94.10;;;;;;5022876;28;20037;-73
2023/04/14 02:04:31;;;;;;;0.55;0.13;;;8.60;93.20;;;;;;5028148;28;20274;-72
2023/04/14 02:06:58;;;;;;;1.48;0.00;;;8.50;93.80;;;;;;5026281;28;20123;-72
2023/04/14 02:09:26;;;;;;;0.20;0.10;;;8.50;93.80;;;;;;5027042;28;20095;-72
2023/04/14 02:11:53;;;;;;;0.38;0.10;;;8.30;94.90;;;;;;5029170;28;20025;-72
2023/04/14 02:14:21;;;;;;;0.65;0.17;;;8.50;94.00;;;;;;5027424;28;20025;-73
2023/04/14 02:16:48;;;;;;;0.95;0.22;;;8.50;93.30;;;;;;5026040;28;20052;-72
2023/04/14 02:19:18;;;;;;;0.35;0.15;;;8.50;93.70;;;;;;5025868;28;20036;-72
2023/04/14 02:21:46;;;;;;;0.10;0.10;;;8.50;93.40;;;;;;5029119;28;20037;-72
2023/04/14 02:24:12;;;;;;;0.85;0.15;;;8.60;93.70;;;;;;5027426;28;20033;-72
2023/04/14 02:26:47;;;;;;;1.52;0.17;;;8.50;93.70;;;;;;5026636;28;20072;-72
2023/04/14 02:29:15;;;;;;;0.60;0.13;;;8.60;93.40;;;;;;5022884;28;20075;-72
2023/04/14 02:31:51;;;;;;;0.17;0.10;;;8.50;93.90;;;;;;5022284;28;20025;-72
2023/04/14 02:34:22;;;;;;;0.52;0.10;;;8.50;93.90;;;;;;5026309;28;20480;-72
2023/04/14 02:36:52;;;;;;;0.52;0.10;;;8.50;93.60;;;;;;5019543;28;20025;-73
2023/04/14 02:39:30;;;;;;;0.57;0.20;;;8.50;94.00;;;;;;5024313;28;20156;-72
2023/04/14 02:42:01;;;;;;;1.75;0.40;;;8.50;93.80;;;;;;5029248;28;20120;-72
2023/04/14 02:44:38;;;;;;;0.65;0.20;;;8.50;93.70;;;;;;5021537;28;20061;-72
2023/04/14 02:47:06;;;;;;;0.85;0.20;;;8.40;94.30;;;;;;5028043;28;20104;-73
2023/04/14 02:49:40;;;;;;;0.30;0.10;;;8.40;94.50;;;;;;5031280;28;20037;-73
2023/04/14 02:52:13;;;;;;;0.03;0.03;;;8.30;95.00;;;;;;5024331;28;20032;-72
2023/04/14 02:54:42;;;;;;;0.17;0.17;;;8.00;95.70;;;;;;5028007;28;20022;-72
2023/04/14 02:57:08;;;;;;;0.80;0.35;;;8.00;95.50;;;;;;5028194;28;20467;-72
2023/04/14 02:59:35;;;;;;;0.75;0.10;;;7.80;96.10;;;;;;5028488;28;20084;-72
2023/04/14 03:02:03;;;;;;;0.75;0.10;;;7.90;95.60;;;;;;5024049;28;20072;-71
2023/04/14 03:04:33;;;;;;;0.63;0.20;;;7.90;95.90;;;;;;5017071;28;20056;-72
2023/04/14 03:07:00;;;;;;;0.00;0.00;;;8.10;94.70;;;;;;5022355;28;20035;-70
2023/04/14 03:09:28;;;;;;;0.20;0.10;;;8.20;95.20;;;;;;5013080;28;20129;-70
2023/04/14 03:11:55;;;;;;;0.28;0.10;;;8.10;95.50;;;;;;5004896;28;20084;-70
2023/04/14 03:14:22;;;;;;;0.30;0.20;;;8.10;95.20;;;;;;5013382;28;20044;-71
2023/04/14 03:16:52;;;;;;;0.90;0.20;;;8.10;95.30;;;;;;5022300;28;20033;-68
2023/04/14 03:19:22;;;;;;;0.95;0.20;;;7.80;96.20;;;;;;5009247;28;20029;-71
2023/04/14 03:21:53;;;;;;;0.17;0.10;;;7.80;96.30;;;;;;5011033;28;20523;-72
2023/04/14 03:24:23;;;;;;;0.43;0.20;;;7.90;96.20;;;;;;5022726;28;20464;-71
2023/04/14 03:26:57;;;;;;;1.60;0.47;;;7.80;96.20;;;;;;5019503;28;20029;-71
2023/04/14 03:29:31;;;;;;;0.32;0.05;;;7.90;96.30;;;;;;5015978;28;20672;-71
2023/04/14 03:32:00;;;;;;;0.05;0.05;;;7.70;96.70;;;;;;5012651;28;20066;-71
2023/04/14 03:34:30;;;;;;;0.55;0.20;;;7.60;97.00;;;;;;5014057;28;20044;-71
2023/04/14 03:36:58;;;;;;;0.45;0.17;;;7.70;96.70;;;;;;5014211;28;20359;-71
2023/04/14 03:39:26;;;;;;;2.30;0.35;;;7.70;96.20;;;;;;5016861;28;20025;-72
2023/04/14 03:41:56;;;;;;;0.00;0.00;;;7.80;96.30;;;;;;5022106;28;20026;-72
2023/04/14 03:44:24;;;;;;;0.00;0.00;;;7.80;96.50;;;;;;5017066;28;20021;-71
2023/04/14 03:46:50;;;;;;;0.98;0.20;;;7.70;96.20;;;;;;5021818;28;20032;-69
2023/04/14 03:49:17;;;;;;;1.65;0.40;;;8.20;94.70;;;;;;5021267;28;20036;-71
2023/04/14 03:51:48;;;;;;;0.50;0.17;;;7.90;96.40;;;;;;5019176;28;20029;-70
2023/04/14 03:54:16;;;;;;;0.30;0.10;;;7.80;96.30;;;;;;5015613;28;20030;-70
2023/04/14 03:56:44;;;;;;;0.00;0.00;;;7.80;96.90;;;;;;5022059;28;20586;-70
2023/04/14 03:59:14;;;;;;;0.40;0.17;;;7.70;97.40;;;;;;5020295;28;20079;-70
2023/04/14 04:01:41;;;;;;;1.05;0.32;;;7.60;97.00;;;;;;5019372;28;20117;-71
2023/04/14 04:04:07;;;;;;;1.02;0.20;;;7.60;96.60;;;;;;5016439;28;20030;-71
2023/04/14 04:06:35;;;;;;;0.10;0.10;;;7.70;96.60;;;;;;5020573;28;20057;-70
2023/04/14 04:09:02;;;;;;;0.10;0.10;;;7.60;96.80;;;;;;5020283;28;20124;-71
2023/04/14 04:11:29;;;;;;;0.93;0.20;;;7.60;97.30;;;;;;5017860;28;20027;-71
2023/04/14 04:13:56;;;;;;;2.58;0.25;;;7.50;97.00;;;;;;5014802;28;21077;-71
2023/04/14 04:16:23;;;;;;;0.55;0.17;;;7.60;97.00;;;;;;5016422;28;20029;-71
2023/04/14 04:18:50;;;;;;;0.57;0.20;;;7.60;96.90;;;;;;5013276;28;20123;-69
2023/04/14 04:21:16;;;;;;;0.75;0.30;;;7.60;96.60;;;;;;5010788;28;20167;-70
2023/04/14 04:23:47;;;;;;;0.75;0.22;;;7.60;96.50;;;;;;5014738;28;20037;-70
2023/04/14 04:26:13;;;;;;;0.17;0.13;;;7.60;96.70;;;;;;5016250;28;20458;-71
2023/04/14 04:28:39;;;;;;;1.23;0.25;;;7.60;96.60;;;;;;5015303;28;20044;-70
2023/04/14 04:31:08;;;;;;;0.30;0.10;;;7.60;96.90;;;;;;5016662;28;20368;-70
2023/04/14 04:33:34;;;;;;;0.57;0.20;;;7.60;96.50;;;;;;5015215;28;20041;-70
2023/04/14 04:36:00;;;;;;;0.40;0.10;;;7.70;96.30;;;;;;5011990;28;20028;-72
2023/04/14 04:38:26;;;;;;;0.60;0.10;;;7.70;96.40;;;;;;5018979;28;20038;-70
2023/04/14 04:40:52;;;;;;;3.72;0.40;;;7.70;96.80;;;;;;5013962;28;20048;-70
2023/04/14 04:43:20;;;;;;;0.82;0.32;;;7.60;97.00;;;;;;5020929;28;20625;-70
2023/04/14 04:45:58;;;;;;;0.15;0.10;;;7.60;97.10;;;;;;5015096;28;20060;-70
2023/04/14 04:48:24;;;;;;;1.60;0.30;;;7.50;97.00;;;;;;5016939;28;21840;-71
2023/04/14 04:50:50;;;;;;;0.82;0.30;;;7.50;97.10;;;;;;5018701;28;20026;-70
2023/04/14 04:53:15;;;;;;;1.63;0.40;;;7.50;97.10;;;;;;5017364;28;20025;-71
2023/04/14 04:55:41;;;;;;;0.65;0.20;;;7.60;97.30;;;;;;5013339;28;20032;-70
2023/04/14 04:58:07;;;;;;;2.58;0.40;;;7.50;97.40;;;;;;5017506;28;20030;-71
2023/04/14 05:00:33;;;;;;;1.83;0.40;;;7.50;97.10;;;;;;5007936;28;20032;-71
2023/04/14 05:02:59;;;;;;;0.32;0.22;;;7.50;97.20;;;;;;5018082;28;20026;-70
2023/04/14 05:05:25;;;;;;;0.30;0.13;;;7.50;97.10;;;;;;5016438;28;20032;-71
2023/04/14 05:07:50;;;;;;;0.55;0.30;;;7.50;97.10;;;;;;5019824;28;20052;-70
2023/04/14 05:10:16;;;;;;;0.65;0.32;;;7.50;97.20;;;;;;5010735;28;20026;-70
2023/04/14 05:12:41;;;;;;;1.05;0.40;;;7.50;97.20;;;;;;5007642;28;20037;-70
2023/04/14 05:15:08;;;;;;;0.35;0.10;;;7.50;96.80;;;;;;5016898;28;20040;-70
2023/04/14 05:17:35;;;;;;;0.35;0.20;;;7.50;97.00;;;;;;5009296;28;20029;-69
2023/04/14 05:20:02;;;;;;;0.95;0.40;;;7.60;96.90;;;;;;5018061;28;20030;-71
2023/04/14 05:22:28;;;;;;;0.30;0.10;;;7.50;97.20;;;;;;5016256;28;20034;-70
2023/04/14 05:24:54;;;;;;;0.40;0.20;;;7.50;97.40;;;;;;5011490;28;20435;-70
2023/04/14 05:27:20;;;;;;;0.82;0.22;;;7.50;97.50;;;;;;5016932;28;20032;-71
2023/04/14 05:29:46;;;;;;;0.75;0.28;;;7.60;97.20;;;;;;5013808;28;20157;-71
2023/04/14 05:32:13;;;;;;;0.63;0.30;;;7.60;97.10;;;;;;5019590;28;20046;-70
2023/04/14 05:34:42;;;;;;;0.25;0.15;;;7.60;97.50;;;;;;5014867;28;20060;-72
2023/04/14 05:37:08;;;;;;;0.22;0.10;;;7.70;97.40;;;;;;5015007;28;20040;-71
2023/04/14 05:39:34;;;;;;;0.68;0.65;;;7.70;97.30;;;;;;5017450;28;20022;-73
2023/04/14 05:42:00;;;;;;;0.73;0.20;;;7.70;96.90;;;;;;5025390;28;20116;-72
2023/04/14 05:44:25;;;;;;;1.80;0.20;;;7.70;96.90;;;;;;5024720;28;20674;-71
2023/04/14 05:46:51;;;;;;;1.25;0.45;;;7.70;97.10;;;;;;5022225;28;20037;-71
2023/04/14 05:49:17;;;;;;;0.80;0.32;;;7.70;97.30;;;;;;5009171;28;20044;-72
2023/04/14 05:51:42;;;;;;;0.10;0.10;;;7.70;97.00;;;;;;5007567;28;20030;-71
2023/04/14 05:54:08;;;;;;;0.52;0.20;;;7.70;96.80;;;;;;5008227;28;20029;-71
2023/04/14 05:56:34;;;;;;;0.65;0.30;;;7.70;96.70;;;;;;5015745;28;20028;-71
2023/04/14 05:59:00;;;;;;;1.42;0.30;;;7.70;97.10;;;;;;5005122;28;20038;-72
2023/04/14 06:01:26;;;;;;;1.75;0.73;;;7.80;97.40;;;;;;5004314;28;20029;-72
2023/04/14 06:03:51;;;;;;;0.20;0.10;;;7.80;97.30;;;;;;5008448;28;20109;-71
2023/04/14 06:06:18;;;;;;;0.65;0.30;;;7.80;97.00;;;;;;5006836;28;20054;-72
2023/04/14 06:08:45;;;;;;;1.17;0.22;;;7.90;96.80;;;;;;5007952;28;20049;-72
2023/04/14 06:11:10;;;;;;;0.88;0.30;;;7.90;96.60;;;;;;5010835;28;20025;-72
2023/04/14 06:13:36;;;;;;;0.30;0.20;;;7.90;96.80;;;;;;5013610;28;20087;-72
2023/04/14 06:16:02;;;;;;;0.25;0.20;;;8.00;97.00;;;;;;5007483;28;20061;-72
2023/04/14 06:18:27;;;;;;;1.20;0.30;;;7.90;96.60;;;;;;5007453;28;20033;-72
2023/04/14 06:20:53;;;;;;;2.08;0.40;;;8.00;97.00;;;;;;5014184;28;20026;-73
2023/04/14 06:23:20;;;;;;;1.23;0.20;;;8.00;96.50;;;;;;5006073;28;20029;-72
2023/04/14 06:25:46;;;;;;;1.17;0.22;;;8.00;96.70;;;;;;5005587;28;20036;-72
2023/04/14 06:28:11;;;;;;;0.47;0.25;;;8.00;96.80;;;;;;5011466;28;20045;-72
2023/04/14 06:30:37;;;;;;;0.57;0.10;;;8.10;96.40;;;;;;5009684;28;20026;-72
2023/04/14 06:33:03;;;;;;;1.00;0.40;;;8.10;96.60;;;;;;5009310;28;20080;-72
2023/04/14 06:35:33;;;;;;;0.40;0.10;;;8.10;96.50;;;;;;5009298;28;20033;-72
2023/04/14 06:38:00;;;;;;;0.95;0.28;;;8.20;96.30;;;;;;5005776;28;20034;-70
2023/04/14 06:40:25;;;;;;;2.28;0.95;;;8.20;96.40;;;;;;5002292;28;20155;-71
2023/04/14 06:42:51;;;;;;;0.90;0.32;;;8.30;96.40;;;;;;5005564;28;20026;-70
2023/04/14 06:45:17;;;;;;;1.45;0.47;;;8.40;96.20;;;;;;5004003;28;20488;-73
2023/04/14 06:47:43;;;;;;;2.22;0.13;;;8.50;96.30;;;;;;5006431;28;20034;-73
2023/04/14 06:50:09;;;;;;;0.47;0.20;;;8.60;96.60;;;;;;5003544;28;20030;-73
2023/04/14 06:52:34;;;;;;;0.85;0.30;;;8.70;95.60;;;;;;5008970;28;20033;-74
2023/04/14 06:55:00;;;;;;;2.10;0.20;;;8.70;95.80;;;;;;5006517;28;22266;-76
2023/04/14 06:57:26;;;;;;;1.35;0.40;;;8.60;96.20;;;;;;5003928;28;20486;-74
2023/04/14 06:59:52;;;;;;;0.77;0.30;;;8.70;95.60;;;;;;5009489;28;20363;-74
2023/04/14 07:02:17;;;;;;;2.90;0.40;;;8.70;95.90;;;;;;5010248;28;20034;-73
2023/04/14 07:04:43;;;;;;;0.73;0.35;;;8.70;96.00;;;;;;5009915;28;20526;-74
2023/04/14 07:07:08;;;;;;;0.57;0.28;;;8.70;95.60;;;;;;5005086;28;20033;-73
2023/04/14 07:09:34;;;;;;;0.57;0.30;;;8.70;95.60;;;;;;5004834;28;20572;-73
2023/04/14 07:12:00;;;;;;;1.10;0.20;;;8.70;95.50;;;;;;5007306;28;20163;-74
2023/04/14 07:14:26;;;;;;;2.70;0.50;;;8.70;95.50;;;;;;5007686;28;20034;-73
2023/04/14 07:16:52;;;;;;;0.75;0.22;;;8.60;95.40;;;;;;5010160;28;20045;-74
2023/04/14 07:19:18;;;;;;;2.47;0.30;;;8.60;95.50;;;;;;5003650;28;20076;-73
2023/04/14 07:21:45;;;;;;;0.95;0.70;;;8.70;96.10;;;;;;5004014;28;20026;-73
2023/04/14 07:24:11;;;;;;;1.35;0.50;;;8.80;96.00;;;;;;5017267;28;20541;-73
2023/04/14 07:26:36;;;;;;;0.55;0.30;;;8.80;95.70;;;;;;5004354;28;20037;-72
2023/04/14 07:29:02;;;;;;;1.13;0.30;;;8.90;95.40;;;;;;5007592;28;20044;-74
2023/04/14 07:31:30;;;;;;;0.52;0.20;;;8.90;95.60;;;;;;5021345;28;20147;-73
2023/04/14 07:33:55;;;;;;;0.47;0.22;;;9.00;95.30;;;;;;5021628;28;20026;-73
2023/04/14 07:36:21;;;;;;;0.57;0.30;;;9.00;94.90;;;;;;5023423;28;20037;-74
2023/04/14 07:38:50;;;;;;;0.68;0.28;;;9.00;95.10;;;;;;5020682;28;20112;-73
2023/04/14 07:41:16;;;;;;;0.90;0.52;;;9.00;95.10;;;;;;5018644;28;20121;-73
2023/04/14 07:43:42;;;;;;;0.20;0.10;;;9.20;95.30;;;;;;5017915;28;20033;-73
2023/04/14 07:46:08;;;;;;;0.85;0.28;;;9.30;95.50;;;;;;5020128;28;20462;-74
2023/04/14 07:48:35;;;;;;;1.40;0.57;;;9.40;95.20;;;;;;5022561;28;20047;-73
2023/04/14 07:51:02;;;;;;;0.82;0.10;;;9.40;94.10;;;;;;5019768;28;20850;-73
2023/04/14 07:53:27;;;;;;;0.63;0.20;;;9.30;94.10;;;;;;5015570;28;20033;-73
2023/04/14 07:55:53;;;;;;;2.05;0.22;;;9.40;94.70;;;;;;5018106;28;20025;-73
2023/04/14 07:58:19;;;;;;;2.08;0.28;;;9.50;94.50;;;;;;5017701;28;20478;-73
2023/04/14 08:00:45;;;;;;;0.75;0.30;;;9.50;94.90;;;;;;5021157;28;20025;-73
2023/04/14 08:03:12;;;;;;;0.70;0.15;;;9.50;95.10;;;;;;5024184;28;20071;-73
2023/04/14 08:05:37;;;;;;;2.22;0.40;;;9.60;95.10;;;;;;5023472;28;20025;-73
2023/04/14 08:08:03;;;;;;;0.88;0.25;;;9.50;94.40;;;;;;5014744;28;20111;-74
2023/04/14 08:10:29;;;;;;;1.80;0.40;;;9.50;94.20;;;;;;5018571;28;20372;-74
2023/04/14 08:12:54;;;;;;;1.85;0.40;;;9.60;95.00;;;;;;5012670;28;20026;-74
2023/04/14 08:15:20;;;;;;;1.60;0.52;;;9.70;94.50;;;;;;5013815;28;20034;-74
2023/04/14 08:17:46;;;;;;;3.20;0.40;;;9.80;94.80;;;;;;5026995;28;20029;-75
2023/04/14 08:20:11;;;;;;;0.40;0.13;;;9.90;95.10;;;;;;5025109;28;20044;-75
2023/04/14 08:22:37;;;;;;;3.50;0.50;;;9.90;94.40;;;;;;5026035;28;20025;-74
2023/04/14 08:25:03;;;;;;;0.80;0.35;;;10.00;94.40;;;;;;5025129;28;20857;-74
2023/04/14 08:27:30;;;;;;;1.65;0.70;;;10.60;96.60;;;;;;5024555;28;20021;-73
2023/04/14 08:29:56;;;;;;;0.98;0.43;;;10.80;94.10;;;;;;5026165;28;20391;-73
2023/04/14 08:32:22;;;;;;;1.65;0.63;;;10.40;93.10;;;;;;5026261;28;20087;-73
2023/04/14 08:34:47;;;;;;;2.30;0.38;;;10.30;93.60;;;;;;5022472;28;20040;-74
2023/04/14 08:37:15;;;;;;;1.13;0.40;;;10.40;94.20;;;;;;5026747;28;20025;-73
2023/04/14 08:39:40;;;;;;;2.25;0.55;;;10.40;93.50;;;;;;5025694;28;20645;-73
2023/04/14 08:42:07;;;;;;;1.80;0.47;;;10.40;93.70;;;;;;5026872;28;20025;-74
2023/04/14 08:44:33;;;;;;;2.40;0.50;;;10.50;93.70;;;;;;5027143;28;20403;-74
2023/04/14 08:46:59;;;;;;;0.77;0.43;;;10.80;93.80;;;;;;5026323;28;20025;-74
2023/04/14 08:49:55;;;;;;;0.77;0.47;;;10.90;92.30;;;;;;5026441;28;22244;-73
2023/04/14 08:52:26;;;;;;;0.57;0.38;;;11.20;92.80;;;;;;5022926;28;20037;-74
2023/04/14 08:54:54;;;;;;;0.68;0.20;;;11.30;91.60;;;;;;5026475;28;20033;-74
2023/04/14 08:57:22;;;;;;;1.52;0.60;;;11.80;91.40;;;;;;5026265;28;20075;-74
2023/04/14 08:59:49;;;;;;;0.32;0.20;;;12.20;91.30;;;;;;5026440;28;20037;-73
2023/04/14 09:02:17;;;;;;;0.25;0.10;;;11.90;90.30;;;;;;5026001;28;20029;-73
2023/04/14 09:04:43;;;;;;;0.95;0.38;;;11.10;91.20;;;;;;5024077;28;20037;-73
2023/04/14 09:07:09;;;;;;;0.47;0.28;;;11.40;91.60;;;;;;5024125;28;20022;-74
2023/04/14 09:09:35;;;;;;;0.40;0.20;;;11.60;91.80;;;;;;5020700;28;20037;-73
2023/04/14 09:12:02;;;;;;;2.92;0.45;;;11.50;89.30;;;;;;5024320;28;20047;-73
2023/04/14 09:14:28;;;;;;;0.88;0.38;;;12.00;90.30;;;;;;5022134;28;21201;-74
2023/04/14 09:16:55;;;;;;;0.75;0.10;;;11.80;90.90;;;;;;5024394;28;20104;-74
2023/04/14 09:19:23;;;;;;;0.40;0.10;;;12.10;90.40;;;;;;5026157;28;20029;-73
2023/04/14 09:21:49;;;;;;;0.95;0.22;;;12.30;90.10;;;;;;5027215;28;20601;-74
2023/04/14 09:24:22;;;;;;;0.17;0.10;;;13.00;89.10;;;;;;5027430;28;20035;-74
2023/04/14 09:26:48;;;;;;;0.30;0.20;;;12.30;90.00;;;;;;5026258;28;20648;-73
2023/04/14 09:29:14;;;;;;;0.93;0.30;;;12.00;88.90;;;;;;5025692;28;20038;-74
2023/04/14 09:31:40;;;;;;;0.88;0.30;;;12.20;90.50;;;;;;5026002;28;20104;-74
2023/04/14 09:34:17;;;;;;;1.00;0.40;;;12.30;89.50;;;;;;5025684;28;20034;-74
2023/04/14 09:37:01;;;;;;;0.88;0.22;;;12.30;90.10;;;;;;5026366;28;20073;-73
2023/04/14 09:39:27;;;;;;;0.93;0.40;;;12.60;90.30;;;;;;5023797;28;20052;-74
2023/04/14 09:41:53;;;;;;;1.80;0.50;;;12.50;90.00;;;;;;5022433;28;20578;-74
2023/04/14 09:44:19;;;;;;;3.20;1.00;;;12.50;88.30;;;;;;5026021;28;20032;-73
2023/04/14 09:47:01;;;;;;;0.25;0.20;;;12.60;88.60;;;;;;5025713;28;20116;-74
2023/04/14 09:49:27;;;;;;;1.85;0.45;;;12.70;90.10;;;;;;5026297;28;20514;-73
2023/04/14 09:51:54;;;;;;;0.80;0.40;;;13.00;91.20;;;;;;5026124;28;20029;-74
2023/04/14 09:54:24;;;;;;;0.75;0.30;;;13.00;90.70;;;;;;5026389;28;20117;-73
2023/04/14 09:56:51;;;;;;;1.33;0.40;;;13.10;90.30;;;;;;5025200;28;20033;-74
2023/04/14 09:59:32;;;;;;;1.70;0.20;;;12.90;88.80;;;;;;5025953;28;20032;-73
2023/04/14 10:02:02;;;;;;;1.25;0.50;;;13.00;87.50;;;;;;5023908;28;20064;-73
2023/04/14 10:04:28;;;;;;;0.80;0.30;;;13.00;89.60;;;;;;5025491;28;20026;-74
2023/04/14 10:06:59;;;;;;;3.35;0.50;;;13.30;88.40;;;;;;5025695;28;20033;-73
2023/04/14 10:09:26;;;;;;;0.65;0.30;;;13.30;87.20;;;;;;5025385;28;20398;-74
2023/04/14 10:12:12;;;;;;;0.43;0.20;;;13.20;86.60;;;;;;5026089;28;20491;-74
2023/04/14 10:14:43;;;;;;;0.47;0.20;;;13.40;87.90;;;;;;5024999;28;20030;-72
2023/04/14 10:17:10;;;;;;;4.65;0.80;;;13.60;86.60;;;;;;5029230;28;20486;-74
2023/04/14 10:19:36;;;;;;;1.35;0.32;;;13.80;88.30;;;;;;5028720;28;20038;-73
2023/04/14 10:22:03;;;;;;;0.70;0.30;;;13.60;88.60;;;;;;5029213;28;20459;-73
2023/04/14 10:24:30;;;;;;;0.98;0.30;;;13.40;86.70;;;;;;5030293;28;20392;-74
2023/04/14 10:26:56;;;;;;;1.80;0.32;;;13.70;86.20;;;;;;5031537;28;20034;-74
2023/04/14 10:29:22;;;;;;;1.52;0.20;;;13.90;86.50;;;;;;5030855;28;20061;-73
2023/04/14 10:31:53;;;;;;;16.15;10.13;;;13.80;85.90;;;;;;5031137;28;20553;-74
2023/04/14 10:34:22;;;;;;;16.58;8.40;;;13.90;86.00;;;;;;5031149;28;20121;-74
2023/04/14 10:36:48;;;;;;;6.20;3.15;;;14.00;86.10;;;;;;5030859;28;20489;-74
2023/04/14 10:39:23;;;;;;;9.23;5.13;;;14.30;86.00;;;;;;5030856;28;20028;-73
2023/04/14 10:41:51;;;;;;;40.80;22.95;;;14.40;85.70;;;;;;5030635;28;20619;-73
2023/04/14 10:44:33;;;;;;;10.15;4.68;;;14.80;85.80;;;;;;5030843;28;20414;-73
2023/04/14 10:47:01;;;;;;;9.77;4.50;;;14.90;84.60;;;;;;5030607;28;20020;-73
2023/04/14 10:49:40;;;;;;;12.57;6.70;;;14.70;84.90;;;;;;5030429;28;20083;-73
2023/04/14 10:52:12;;;;;;;1.65;0.77;;;14.70;85.20;;;;;;5030912;28;20109;-74
2023/04/14 10:54:47;;;;;;;2.28;0.52;;;14.60;84.20;;;;;;5030515;28;20033;-74
2023/04/14 10:57:14;;;;;;;2.33;0.60;;;14.70;84.50;;;;;;5030372;28;20112;-73
2023/04/14 10:59:45;;;;;;;2.08;0.60;;;14.70;84.20;;;;;;5030285;28;20049;-74
2023/04/14 11:02:29;;;;;;;0.40;0.10;;;14.70;84.40;;;;;;5027805;28;20037;-73
2023/04/14 11:04:58;;;;;;;0.80;0.30;;;14.50;81.70;;;;;;5028309;28;20029;-73
2023/04/14 11:07:24;;;;;;;0.85;0.20;;;14.70;82.10;;;;;;5030429;28;20057;-73
2023/04/14 11:09:50;;;;;;;0.55;0.30;;;14.80;81.70;;;;;;5030094;28;20041;-73
2023/04/14 11:12:23;;;;;;;1.08;0.30;;;15.10;82.60;;;;;;5030236;28;20482;-73
2023/04/14 11:14:53;;;;;;;1.50;0.22;;;14.90;83.90;;;;;;5030592;28;20037;-73
2023/04/14 11:17:21;;;;;;;0.25;0.17;;;14.90;81.90;;;;;;5030648;28;20636;-74
2023/04/14 11:19:46;;;;;;;0.55;0.20;;;15.20;81.90;;;;;;5011963;28;20022;-73
2023/04/14 11:22:12;;;;;;;0.47;0.28;;;15.20;80.90;;;;;;5010177;28;20033;-74
2023/04/14 11:24:39;;;;;;;2.53;0.80;;;15.30;82.40;;;;;;5019580;28;20033;-74
2023/04/14 11:27:04;;;;;;;0.52;0.10;;;15.40;81.30;;;;;;5026630;28;20762;-73
2023/04/14 11:29:31;;;;;;;0.20;0.05;;;15.50;81.90;;;;;;5026485;28;20033;-73
2023/04/14 11:32:05;;;;;;;0.30;0.10;;;15.70;83.00;;;;;;5024981;28;20037;-73
2023/04/14 11:34:32;;;;;;;0.27;0.00;;;15.90;82.80;;;;;;5023835;28;20029;-74
2023/04/14 11:37:00;;;;;;;9.32;4.32;;;15.90;80.50;;;;;;5024332;28;20281;-73
2023/04/14 11:39:28;;;;;;;1.27;0.52;;;15.90;81.20;;;;;;5025007;28;20043;-74
2023/04/14 11:41:54;;;;;;;0.10;0.10;;;16.40;83.00;;;;;;5024734;28;20085;-74
2023/04/14 11:44:21;;;;;;;0.35;0.10;;;15.80;77.90;;;;;;5025256;28;20033;-75
2023/04/14 11:46:49;;;;;;;0.50;0.10;;;15.70;78.10;;;;;;5024151;28;20088;-76
2023/04/14 11:49:14;;;;;;;0.60;0.20;;;15.80;80.30;;;;;;5024442;28;20148;-73
2023/04/14 11:51:40;;;;;;;3.65;1.50;;;16.40;81.20;;;;;;5024476;28;20128;-74
2023/04/14 11:54:06;;;;;;;0.43;0.25;;;16.00;77.90;;;;;;5024994;28;20044;-74
2023/04/14 11:56:32;;;;;;;1.77;0.90;;;16.40;76.90;;;;;;5026993;28;20021;-74
2023/04/14 11:59:02;;;;;;;2.38;0.77;;;16.60;77.30;;;;;;5024883;28;20040;-76
2023/04/14 12:01:28;;;;;;;0.68;0.20;;;16.60;78.90;;;;;;5028163;28;20029;-76
2023/04/14 12:03:56;;;;;;;1.00;0.30;;;16.50;75.30;;;;;;5013955;28;20029;-74
2023/04/14 12:06:23;;;;;;;39.83;18.75;;;16.40;77.30;;;;;;5015174;28;20025;-76
2023/04/14 12:08:52;;;;;;;35.33;17.45;;;16.30;77.10;;;;;;5018005;28;20046;-74
2023/04/14 12:11:18;;;;;;;1.67;0.93;;;16.80;76.40;;;;;;5016647;28;20379;-75
2023/04/14 12:13:46;;;;;;;3.10;1.70;;;16.80;76.60;;;;;;5016849;28;20030;-75
2023/04/14 12:16:13;;;;;;;1.58;0.60;;;17.10;76.90;;;;;;5018686;28;20026;-72
2023/04/14 12:18:39;;;;;;;0.77;0.20;;;17.10;77.90;;;;;;5014261;28;20499;-75
2023/04/14 12:21:06;;;;;;;2.05;0.82;;;17.10;77.80;;;;;;5017559;28;20030;-74
2023/04/14 12:23:36;;;;;;;2.45;1.55;;;17.20;77.50;;;;;;5017331;28;20022;-74
2023/04/14 12:26:02;;;;;;;0.55;0.32;;;17.10;76.00;;;;;;5015263;28;20514;-75
2023/04/14 12:28:28;;;;;;;5.10;0.55;;;17.10;75.00;;;;;;5017679;28;20030;-74
2023/04/14 12:31:01;;;;;;;1.27;0.80;;;16.90;75.50;;;;;;5014636;28;20030;-74
2023/04/14 12:33:27;;;;;;;0.85;0.50;;;16.80;74.50;;;;;;5016652;28;20030;-74
2023/04/14 12:36:06;;;;;;;0.75;0.20;;;17.00;78.00;;;;;;5014294;28;20495;-76
2023/04/14 12:38:33;;;;;;;5.07;0.65;;;17.00;78.40;;;;;;5017588;28;20099;-74
2023/04/14 12:40:59;;;;;;;0.38;0.13;;;16.80;79.50;;;;;;5015927;28;20617;-74
2023/04/14 12:43:28;;;;;;;0.45;0.15;;;16.50;76.00;;;;;;5019830;28;20033;-74
2023/04/14 12:45:54;;;;;;;1.90;1.40;;;16.40;75.50;;;;;;5027289;28;20029;-74
2023/04/14 12:48:21;;;;;;;0.57;0.47;;;16.50;74.00;;;;;;5020283;28;20030;-74
2023/04/14 12:50:46;;;;;;;0.20;0.10;;;16.70;77.30;;;;;;5018890;28;20022;-74
2023/04/14 12:53:27;;;;;;;0.63;0.20;;;16.80;74.50;;;;;;5014136;28;20170;-73
2023/04/14 12:56:09;;;;;;;0.20;0.00;;;16.60;74.40;;;;;;5015514;28;20055;-74
2023/04/14 12:58:42;;;;;;;0.35;0.15;;;16.50;77.60;;;;;;5011122;28;20022;-74